Data for 07/27/2018

Time Sea-Level Adjusted Pressure Absolute Pressure Temperature Relative Humidity Dew Point   
(mb) (inHg) (mb) (inHg) (C) (F) (%) (C) (F)
00:05 1024 30.24 853 25.19 15.7 60.2 63 8.7 47.6
00:10 1024 30.24 853 25.19 15.6 60.1 63 8.5 47.4
00:15 1024 30.24 853 25.19 15.6 60.1 62 8.4 47.2
00:20 1024 30.24 853 25.19 15.6 60 62 8.5 47.2
00:25 1024 30.24 853 25.19 15.5 59.9 62 8.4 47
00:30 1024 30.24 853 25.19 15.5 59.9 62 8.2 46.8
00:35 1024 30.24 854 25.22 15.5 59.8 62 8.2 46.7
00:40 1024 30.24 854 25.22 15.4 59.7 62 8.2 46.7
00:45 1024 30.24 854 25.22 15.3 59.6 62 8.1 46.6
00:50 1024 30.24 854 25.22 15.3 59.5 62 8 46.5
00:55 1024 30.24 854 25.22 15.2 59.3 62 8.1 46.5
01:00 1024 30.24 854 25.22 15.1 59.1 63 8.1 46.5
01:05 1024 30.24 854 25.22 15 59 63 8.1 46.5
01:10 1024 30.24 854 25.22 14.9 58.9 63 8.1 46.5
01:15 1024 30.24 854 25.22 14.9 58.8 63 8.1 46.5
01:20 1024 30.24 854 25.22 14.9 58.8 63 8.1 46.6
01:25 1024 30.24 853 25.19 14.8 58.7 64 8.1 46.6
01:30 1024 30.24 853 25.19 14.8 58.7 64 8.1 46.6
01:35 1024 30.24 853 25.19 14.8 58.6 64 8.1 46.6
01:40 1024 30.24 853 25.19 14.7 58.5 64 8.2 46.7
01:45 1024 30.24 853 25.19 14.7 58.5 64 8.1 46.6
01:50 1024 30.24 853 25.19 14.8 58.6 64 8.2 46.7
01:55 1024 30.24 853 25.19 14.7 58.5 64 8.1 46.6
02:00 1024 30.24 853 25.19 14.8 58.6 64 8.1 46.6
02:05 1024 30.24 853 25.19 14.8 58.6 64 8.1 46.6
02:10 1024 30.24 853 25.19 14.8 58.7 64 8.1 46.5
02:15 1024 30.24 853 25.19 14.8 58.7 64 8.1 46.6
02:20 1024 30.24 853 25.19 14.8 58.6 64 8.1 46.7
02:25 1024 30.24 853 25.19 14.8 58.6 64 8.1 46.6
02:30 1024 30.24 853 25.19 14.8 58.6 64 8.1 46.6
02:35 1024 30.24 853 25.19 14.8 58.6 64 8.2 46.7
02:40 1024 30.24 853 25.19 14.8 58.7 64 8.2 46.7
02:45 1024 30.24 853 25.19 14.8 58.6 64 8.2 46.7
02:50 1024 30.24 853 25.19 14.8 58.6 65 8.2 46.8
02:55 1024 30.24 853 25.19 14.8 58.6 64 8.2 46.7
03:00 1024 30.24 853 25.19 14.7 58.5 65 8.3 46.9
03:05 1024 30.24 853 25.19 14.6 58.3 65 8.3 46.9
03:10 1024 30.24 853 25.19 14.5 58.1 66 8.3 47
03:15 1024 30.24 853 25.19 14.3 57.7 67 8.4 47
03:20 1024 30.24 853 25.19 14 57.2 69 8.3 47
03:25 1024 30.24 853 25.19 13.8 56.8 69 8.3 46.9
03:30 1024 30.24 853 25.19 13.6 56.5 70 8.2 46.8
03:35 1024 30.24 853 25.19 13.6 56.5 70 8.2 46.8
03:40 1024 30.24 853 25.19 13.6 56.5 69 8.1 46.6
03:45 1024 30.24 853 25.19 13.7 56.7 69 8.2 46.7
03:50 1024 30.24 853 25.19 13.8 56.8 69 8.1 46.7
03:55 1024 30.24 853 25.19 13.8 56.8 68 8.1 46.7
04:00 1024 30.24 853 25.19 13.8 56.9 69 8.2 46.7
04:05 1024 30.24 853 25.19 13.8 56.9 68 8.1 46.6
04:10 1024 30.24 853 25.19 13.8 56.8 69 8.2 46.7
04:15 1024 30.24 853 25.19 13.7 56.6 69 8.1 46.6
04:20 1024 30.24 853 25.19 13.5 56.3 70 8.2 46.8
04:25 1024 30.24 853 25.19 13.3 56 70 8.1 46.5
04:30 1024 30.24 853 25.19 13.3 56 70 8.1 46.5
04:35 1024 30.24 853 25.19 13.3 55.9 71 8.2 46.7
04:40 1024 30.24 853 25.19 13.2 55.8 71 8.1 46.5
04:45 1024 30.24 853 25.19 13.3 55.9 71 8.2 46.7
04:50 1024 30.24 853 25.19 13.1 55.6 72 8.2 46.8
04:55 1024 30.24 853 25.19 13 55.3 73 8.2 46.7
05:00 1024 30.24 853 25.19 12.8 55 73 8.2 46.8
05:05 1024 30.24 853 25.19 12.8 55.1 73 8.1 46.6
05:10 1024 30.24 853 25.19 13.1 55.6 71 8 46.4
05:15 1024 30.24 853 25.19 13.3 56 71 8.1 46.7
05:20 1024 30.24 853 25.19 13.1 55.5 72 8.2 46.8
05:25 1024 30.24 853 25.19 12.6 54.7 74 8.1 46.5
05:30 1024 30.24 853 25.19 12.2 54 75 7.9 46.3
05:35 1024 30.24 853 25.19 12 53.6 76 7.8 46.1
05:40 1024 30.24 853 25.19 11.9 53.4 76 7.9 46.2
05:45 1024 30.24 853 25.19 11.8 53.2 77 7.9 46.2
05:50 1024 30.24 853 25.19 11.8 53.3 77 7.9 46.2
05:55 1024 30.24 853 25.19 11.8 53.3 77 8 46.4
06:00 1024 30.24 853 25.19 11.9 53.5 76 7.9 46.3
06:05 1024 30.24 853 25.19 12.1 53.8 75 7.9 46.2
06:10 1024 30.24 853 25.19 12.2 54 75 7.9 46.3
06:15 1024 30.24 853 25.19 12.3 54.1 75 8 46.5
06:20 1024 30.24 853 25.19 12.1 53.7 76 7.9 46.3
06:25 1024 30.24 853 25.19 12 53.7 75 7.8 46
06:30 1024 30.24 853 25.19 11.9 53.4 76 7.8 46.1
06:35 1024 30.24 853 25.19 11.9 53.4 75 7.7 45.9
06:40 1024 30.24 853 25.19 12 53.7 75 7.8 46
06:45 1024 30.24 853 25.19 12.2 53.9 74 7.7 45.9
06:50 1024 30.24 853 25.19 12.4 54.2 73 7.8 46
06:55 1024 30.24 853 25.19 12.5 54.4 73 7.7 45.9
07:00 1024 30.24 853 25.19 12.6 54.7 72 7.7 45.9
07:05 1024 30.24 853 25.19 12.9 55.3 71 7.8 46
07:10 1024 30.24 853 25.19 13.4 56 69 7.8 46
07:15 1024 30.24 853 25.19 13.7 56.6 68 8 46.3
07:20 1024 30.24 853 25.19 13.9 57 67 8 46.3
07:25 1024 30.24 853 25.19 14.2 57.5 65 7.8 46
07:30 1024 30.24 853 25.19 14.5 58.2 65 8 46.5
07:35 1024 30.24 853 25.19 14.7 58.5 66 8.4 47.2
07:40 1024 30.24 854 25.22 14.9 58.9 63 8 46.4
07:45 1024 30.24 854 25.22 15.7 60.3 60 8 46.5
07:50 1024 30.24 854 25.22 16 60.8 61 8.5 47.2
07:55 1024 30.24 854 25.22 16.4 61.6 57 8 46.5
08:00 1024 30.24 854 25.22 16.3 61.3 60 8.5 47.4
08:05 1024 30.24 854 25.22 15.9 60.6 60 8.2 46.8
08:10 1024 30.24 854 25.22 15.9 60.6 60 8.3 46.9
08:15 1024 30.24 853 25.19 15.7 60.3 60 8.1 46.7
08:20 1024 30.24 853 25.19 16.2 61.1 58 8.1 46.5
08:25 1024 30.24 853 25.19 17 62.6 55 8 46.4
08:30 1024 30.24 853 25.19 16.6 61.9 59 8.5 47.4
08:35 1024 30.24 853 25.19 16.5 61.7 58 8.3 47
08:40 1024 30.24 853 25.19 17 62.7 56 8.3 46.9
08:45 1024 30.24 853 25.19 17.2 63 54 8.1 46.5
08:50 1024 30.24 853 25.19 17.9 64.1 55 8.9 48
08:55 1024 30.24 853 25.19 17.5 63.5 55 8.3 47
09:00 1024 30.24 853 25.19 17.4 63.4 54 8.1 46.6
09:05 1024 30.24 853 25.19 18 64.4 53 8.3 46.9
09:10 1024 30.24 853 25.19 18.6 65.4 51 8.3 47
09:15 1024 30.24 853 25.19 18.6 65.5 53 9 48.2
09:20 1024 30.24 853 25.19 18.7 65.6 52 8.8 47.9
09:25 1024 30.24 853 25.19 18.8 65.9 52 9 48.2
09:30 1024 30.24 853 25.19 18.6 65.6 51 8.4 47.1
09:35 1024 30.24 853 25.19 19 66.1 50 8.5 47.2
09:40 1024 30.24 853 25.19 19.4 67 49 8.6 47.5
09:45 1024 30.24 853 25.19 19.4 66.9 49 8.5 47.4
09:50 1024 30.24 853 25.19 19.3 66.7 48 8.2 46.7
09:55 1024 30.24 853 25.19 19.8 67.6 47 8.3 47
10:00 1024 30.24 853 25.19 18.6 65.5 51 8.3 47
10:05 1024 30.24 853 25.19 19.1 66.3 49 8.2 46.8
10:10 1024 30.24 853 25.19 19.6 67.2 49 8.6 47.5
10:15 1024 30.24 853 25.19 19.5 67 49 8.7 47.6
10:20 1024 30.24 853 25.19 19.2 66.5 50 8.6 47.5
10:25 1024 30.24 853 25.19 19.6 67.2 49 8.6 47.5
10:30 1024 30.24 853 25.19 19.2 66.5 50 8.6 47.4
10:35 1024 30.24 853 25.19 19.5 67.1 49 8.7 47.7
10:40 1024 30.24 853 25.19 19.2 66.6 48 8.1 46.6
10:45 1024 30.24 853 25.19 20 68 47 8.6 47.6
10:50 1024 30.24 853 25.19 20.4 68.7 45 8.1 46.6
10:55 1024 30.24 853 25.19 21.1 70 44 8.7 47.6
11:00 1024 30.24 853 25.19 21.3 70.3 44 8.5 47.4
11:05 1024 30.24 853 25.19 20.5 68.9 47 9 48.2
11:10 1024 30.24 853 25.19 19.9 67.9 47 8.5 47.2
11:15 1024 30.24 853 25.19 20.4 68.7 46 8.5 47.3
11:20 1024 30.24 853 25.19 20.9 69.6 45 8.8 47.8
11:25 1024 30.24 853 25.19 20.8 69.5 45 8.7 47.6
11:30 1024 30.24 853 25.19 20.4 68.7 46 8.5 47.3
11:35 1024 30.24 853 25.19 20.7 69.3 44 8.2 46.7
11:40 1024 30.24 853 25.19 21.5 70.7 44 8.9 48.1
11:45 1024 30.24 853 25.19 20.7 69.3 46 8.9 48
11:50 1024 30.24 853 25.19 20.6 69.2 43 7.9 46.3
11:55 1024 30.24 853 25.19 21.4 70.4 44 8.8 47.9
12:00 1024 30.24 853 25.19 21.6 70.8 41 8 46.3
12:05 1024 30.24 853 25.19 22.9 73.1 38 8 46.5
12:10 1023 30.21 853 25.19 23.1 73.6 39 8.6 47.5
12:15 1023 30.21 853 25.19 22.9 73.2 39 8.5 47.3
12:20 1023 30.21 853 25.19 22.1 71.7 42 8.9 48
12:25 1023 30.21 853 25.19 22.1 71.7 41 8.2 46.8
12:30 1023 30.21 852 25.16 23.5 74.3 37 8.3 47
12:35 1023 30.21 852 25.16 23.9 74.9 39 9.1 48.4
12:40 1023 30.21 852 25.16 23.7 74.7 37 8.3 47
12:45 1023 30.21 852 25.16 24.5 76.1 35 8.4 47.1
12:50 1023 30.21 852 25.16 24.5 76.2 34 8.1 46.5
12:55 1023 30.21 852 25.16 24.6 76.3 36 8.7 47.7
13:00 1023 30.21 852 25.16 24.3 75.7 34 7.5 45.5
13:05 1023 30.21 852 25.16 24.3 75.7 35 8.2 46.7
13:10 1023 30.21 852 25.16 24.5 76.1 34 7.8 46
13:15 1023 30.21 852 25.16 25.2 77.3 33 7.8 46.1
13:20 1023 30.21 852 25.16 25.2 77.3 34 8.4 47
13:25 1023 30.21 852 25.16 24.4 76 34 7.9 46.2
13:30 1023 30.21 852 25.16 25.4 77.7 31 7.4 45.4
13:35 1023 30.21 852 25.16 25.8 78.4 30 7 44.5
13:40 1023 30.21 852 25.16 25.6 78.2 31 7.5 45.5
13:45 1023 30.21 852 25.16 25.2 77.3 32 7.6 45.6
13:50 1023 30.21 852 25.16 25.4 77.6 30 6.6 43.8
13:55 1023 30.21 852 25.16 25.6 78 30 7 44.6
14:00 1023 30.21 852 25.16 25.3 77.6 31 7.4 45.3
14:05 1023 30.21 852 25.16 24.9 76.8 30 6.6 43.9
14:10 1023 30.21 852 25.16 25.9 78.7 29 6.7 44.1
14:15 1023 30.21 852 25.16 25.8 78.4 28 6.3 43.3
14:20 1023 30.21 852 25.16 25.2 77.3 30 6.7 44.1
14:25 1023 30.21 852 25.16 26.2 79.1 27 6.1 43
14:30 1023 30.21 852 25.16 26.2 79.2 29 7.2 45
14:35 1023 30.21 852 25.16 25.5 77.9 28 5.8 42.5
14:40 1022 30.18 852 25.16 25.3 77.6 27 5 41.1
14:45 1022 30.18 852 25.16 26.8 80.2 25 5.7 42.2
14:50 1022 30.18 852 25.16 25.7 78.3 26 5.1 41.2
14:55 1022 30.18 852 25.16 26.7 80 25 5.4 41.8
15:00 1022 30.18 852 25.16 26.4 79.5 27 6 42.8
15:05 1022 30.18 851 25.13 26 78.8 27 6 42.8
15:10 1022 30.18 851 25.13 26 78.8 28 6.3 43.3
15:15 1022 30.18 851 25.13 25.7 78.3 27 5.8 42.4
15:20 1022 30.18 851 25.13 25.7 78.2 27 5.5 41.9
15:25 1022 30.18 851 25.13 25.4 77.7 28 5.8 42.4
15:30 1022 30.18 851 25.13 25.4 77.7 28 5.6 42
15:35 1022 30.18 851 25.13 25.2 77.4 28 5.7 42.2
15:40 1022 30.18 851 25.13 24.8 76.6 28 5.4 41.7
15:45 1022 30.18 851 25.13 24.8 76.7 27 5 41.1
15:50 1022 30.18 851 25.13 25 77 27 4.8 40.7
15:55 1022 30.18 851 25.13 25 77.1 27 5 40.9
16:00 1022 30.18 851 25.13 24.9 76.7 31 6.6 43.9
16:05 1022 30.18 852 25.16 24.2 75.5 34 7.6 45.7
16:10 1022 30.18 852 25.16 23.5 74.4 35 7.6 45.6
16:15 1023 30.21 852 25.16 23.3 74 36 7.4 45.4
16:20 1023 30.21 852 25.16 23.2 73.7 36 7.6 45.6
16:25 1023 30.21 852 25.16 23.1 73.6 37 7.6 45.7
16:30 1023 30.21 852 25.16 23.1 73.5 35 7.2 44.9
16:35 1023 30.21 852 25.16 22.6 72.6 37 7.2 45
16:40 1023 30.21 852 25.16 22.6 72.6 36 6.8 44.2
16:45 1023 30.21 852 25.16 22.7 72.8 36 6.9 44.4
16:50 1023 30.21 852 25.16 23 73.5 36 7.2 45
16:55 1023 30.21 852 25.16 23 73.4 34 6.6 43.9
17:00 1023 30.21 852 25.16 22.8 73 34 6.4 43.4
17:05 1022 30.18 852 25.16 22.6 72.6 35 6.5 43.8
17:10 1022 30.18 851 25.13 22.6 72.6 35 6.4 43.5
17:15 1022 30.18 851 25.13 22.8 73.1 34 6.3 43.3
17:20 1022 30.18 851 25.13 23.2 73.7 35 6.9 44.3
17:25 1022 30.18 851 25.13 23.3 74 35 7 44.6
17:30 1022 30.18 851 25.13 23.3 74 34 7 44.6
17:35 1022 30.18 851 25.13 23.1 73.5 37 7.8 46.1
17:40 1022 30.18 851 25.13 22.3 72.2 39 8.1 46.5
17:45 1022 30.18 851 25.13 21.9 71.3 39 7.5 45.5
17:50 1022 30.18 851 25.13 21.5 70.7 39 7.3 45.2
17:55 1022 30.18 851 25.13 21 69.9 41 7.4 45.3
18:00 1022 30.18 851 25.13 21 69.8 41 7.4 45.3
18:05 1022 30.18 851 25.13 21 69.8 41 7.3 45.1
18:10 1022 30.18 851 25.13 20.9 69.7 41 7.4 45.3
18:15 1022 30.18 851 25.13 20.9 69.6 41 7.4 45.3
18:20 1022 30.18 851 25.13 20.7 69.3 42 7.4 45.2
18:25 1022 30.18 851 25.13 20.8 69.5 41 7.3 45.2
18:30 1022 30.18 851 25.13 20.7 69.3 40 6.9 44.5
18:35 1022 30.18 851 25.13 20.6 69 41 7 44.6
18:40 1022 30.18 851 25.13 20.6 69 41 6.9 44.5
18:45 1022 30.18 851 25.13 20.4 68.6 41 6.8 44.2
18:50 1022 30.18 851 25.13 20.3 68.6 40 6.5 43.7
18:55 1022 30.18 851 25.13 20.1 68.2 42 6.8 44.2
19:00 1022 30.18 851 25.13 19.9 67.8 42 6.6 43.9
19:05 1022 30.18 851 25.13 19.6 67.2 43 6.8 44.2
19:10 1022 30.18 851 25.13 19.2 66.6 43 6.6 43.9
19:15 1022 30.18 851 25.13 19.1 66.3 44 6.7 44.1
19:20 1023 30.21 852 25.16 18.9 66.1 44 6.6 44
19:25 1023 30.21 852 25.16 18.9 65.9 45 6.7 44.1
19:30 1023 30.21 852 25.16 18.8 65.8 45 6.6 43.9
19:35 1023 30.21 852 25.16 18.7 65.6 45 6.7 44
19:40 1023 30.21 853 25.19 18.6 65.5 45 6.6 43.9
19:45 1024 30.24 853 25.19 18.6 65.4 45 6.6 43.8
19:50 1024 30.24 853 25.19 18.5 65.3 46 6.6 44
19:55 1024 30.24 853 25.19 18.4 65.2 46 6.6 44
20:00 1024 30.24 853 25.19 18.4 65.1 47 7 44.5
20:05 1024 30.24 853 25.19 17.6 63.7 56 8.9 48
20:10 1023 30.21 853 25.19 16.4 61.4 60 8.7 47.7
20:15 1023 30.21 853 25.19 16.4 61.5 59 8.4 47
20:20 1024 30.24 853 25.19 17.2 62.9 54 7.8 46
20:25 1024 30.24 853 25.19 16.7 62 57 8.2 46.8
20:30 1024 30.24 853 25.19 15.7 60.3 62 8.4 47.2
20:35 1024 30.24 853 25.19 15.2 59.3 63 8.2 46.7
20:40 1024 30.24 853 25.19 15.3 59.6 59 7.4 45.4
20:45 1024 30.24 853 25.19 15.6 60.1 58 7.5 45.4
20:50 1024 30.24 853 25.19 15.7 60.2 59 7.7 45.8
20:55 1024 30.24 853 25.19 15.6 60 59 7.6 45.7
21:00 1024 30.24 853 25.19 15.5 59.9 60 7.8 46
21:05 1024 30.24 853 25.19 15.3 59.5 61 7.8 46
21:10 1024 30.24 853 25.19 15.1 59.2 61 7.8 46.1
21:15 1024 30.24 853 25.19 15.1 59.1 61 7.7 45.9
21:20 1024 30.24 853 25.19 15.1 59.1 61 7.6 45.7
21:25 1024 30.24 853 25.19 15.2 59.3 60 7.5 45.4
21:30 1024 30.24 853 25.19 15.3 59.5 60 7.5 45.5
21:35 1024 30.24 853 25.19 15.3 59.5 60 7.6 45.7
21:40 1024 30.24 853 25.19 15.2 59.4 60 7.6 45.8
21:45 1024 30.24 853 25.19 15.1 59.2 62 7.8 46.1
21:50 1024 30.24 853 25.19 14.8 58.6 63 7.9 46.2
21:55 1024 30.24 853 25.19 14.7 58.4 64 7.9 46.3
22:00 1024 30.24 853 25.19 14.6 58.3 65 8.1 46.5
22:05 1024 30.24 853 25.19 14.5 58.1 65 8.1 46.6
22:10 1024 30.24 853 25.19 14.3 57.8 66 8 46.5
22:15 1024 30.24 853 25.19 14.3 57.7 66 8 46.4
22:20 1024 30.24 853 25.19 14.6 58.2 65 8 46.5
22:25 1024 30.24 853 25.19 14.6 58.3 66 8.3 47
22:30 1024 30.24 853 25.19 14.2 57.5 68 8.4 47.1
22:35 1024 30.24 853 25.19 13.8 56.9 68 8.2 46.7
22:40 1024 30.24 853 25.19 13.7 56.7 69 8.2 46.8
22:45 1024 30.24 853 25.19 13.6 56.5 69 8.2 46.7
22:50 1024 30.24 853 25.19 13.4 56.2 71 8.3 46.9
22:55 1024 30.24 853 25.19 13.3 56 70 8.1 46.6
23:00 1024 30.24 853 25.19 13.4 56.1 71 8.2 46.8
23:05 1024 30.24 853 25.19 13.2 55.8 71 8.2 46.7
23:10 1024 30.24 853 25.19 13.2 55.7 71 8.1 46.6
23:15 1024 30.24 853 25.19 13.1 55.6 72 8.1 46.6
23:20 1024 30.24 853 25.19 12.9 55.2 72 8 46.4
23:25 1024 30.24 853 25.19 12.8 55.1 71 7.8 46.1
23:30 1024 30.24 853 25.19 12.9 55.3 71 7.9 46.1
23:35 1024 30.24 853 25.19 12.9 55.2 71 7.8 46.1
23:40 1024 30.24 853 25.19 12.8 55 71 7.7 45.9
23:45 1024 30.24 853 25.19 12.8 55 71 7.7 45.8
23:50 1024 30.24 853 25.19 12.8 55.1 70 7.5 45.5
23:55 1024 30.24 853 25.19 13.1 55.5 69 7.5 45.5
24:00 1024 30.24 853 25.19 13.2 55.8 68 7.5 45.5